createdAt,value
2024-05-09T18:54:57.519Z,20.90
2024-05-09T18:57:59.318Z,24.90
2024-05-09T19:01:02.045Z,25.90
2024-05-09T19:04:04.187Z,25.70
2024-05-09T19:07:05.965Z,25.00
2024-05-09T19:10:17.557Z,24.60
2024-05-09T19:13:25.253Z,24.40
2024-05-09T19:16:27.013Z,24.20
2024-05-09T19:19:28.857Z,24.00
2024-05-09T19:22:31.766Z,23.90
2024-05-09T19:25:33.453Z,23.90
2024-05-09T19:28:35.145Z,23.80
2024-05-09T19:31:36.820Z,23.80
2024-05-09T19:34:38.620Z,23.80
2024-05-09T19:37:43.375Z,23.70
2024-05-09T19:40:45.479Z,23.70
2024-05-09T19:43:47.373Z,23.70
2024-05-09T19:46:49.041Z,23.70
2024-05-09T19:49:50.765Z,23.80
2024-05-09T19:52:52.673Z,23.80
2024-05-09T19:55:55.607Z,23.70
2024-05-09T19:58:57.276Z,23.70
2024-05-09T20:01:59.040Z,23.70
2024-05-09T20:05:02.188Z,23.70
2024-05-09T20:08:04.089Z,23.70
2024-05-09T20:11:05.799Z,23.70
2024-05-09T20:14:07.811Z,23.70
2024-05-09T20:17:09.467Z,23.60
2024-05-09T20:20:20.141Z,23.70
2024-05-09T20:23:29.890Z,23.70
2024-05-09T20:26:31.596Z,23.60
2024-05-09T20:29:33.366Z,23.60
2024-05-09T20:32:35.500Z,23.60
2024-05-09T20:35:37.404Z,23.60
2024-05-09T20:38:39.186Z,23.60
2024-05-09T20:41:40.829Z,23.60
2024-05-09T20:44:42.534Z,23.60
2024-05-09T20:47:44.355Z,23.60
2024-05-09T20:50:46.368Z,23.60
2024-05-09T20:53:48.421Z,23.50
2024-05-09T20:56:50.131Z,23.60
2024-05-09T20:59:51.794Z,23.60
2024-05-09T21:02:53.735Z,23.50
2024-05-09T21:05:55.466Z,23.50
2024-05-09T21:08:58.499Z,23.50
2024-05-09T21:12:00.173Z,23.60
2024-05-09T21:15:01.849Z,23.70
2024-05-09T21:18:03.620Z,23.60
2024-05-09T21:21:05.361Z,23.60
2024-05-09T21:24:07.096Z,23.50
2024-05-09T21:27:08.837Z,23.60
2024-05-09T21:30:16.048Z,23.50
2024-05-09T21:33:24.873Z,23.50
2024-05-09T21:36:26.627Z,23.50
2024-05-09T21:39:29.296Z,23.50
2024-05-09T21:42:31.253Z,23.40
2024-05-09T21:45:33.008Z,23.40
2024-05-09T21:48:34.897Z,23.40
2024-05-09T21:51:36.708Z,23.40
2024-05-09T21:54:38.664Z,23.40
2024-05-09T21:57:40.382Z,23.40
2024-05-09T22:00:46.443Z,23.40
2024-05-09T22:03:48.739Z,23.30
2024-05-09T22:06:50.708Z,23.30
2024-05-09T22:09:52.432Z,23.30
2024-05-09T22:12:54.200Z,23.30
2024-05-09T22:15:55.971Z,23.30
2024-05-09T22:18:57.793Z,23.30
2024-05-09T22:22:00.130Z,23.30
2024-05-09T22:25:01.891Z,23.30
2024-05-09T22:28:03.842Z,23.30
2024-05-09T22:31:05.944Z,23.20
2024-05-09T22:34:08.054Z,23.20
2024-05-09T22:37:09.927Z,23.20
2024-05-09T22:40:15.132Z,23.10
2024-05-09T22:43:24.518Z,23.10
2024-05-09T22:46:27.090Z,23.10
2024-05-09T22:49:28.858Z,23.10
2024-05-09T22:52:30.528Z,23.10
2024-05-09T22:55:32.170Z,23.00
2024-05-09T22:58:34.406Z,23.10
2024-05-09T23:01:36.269Z,23.00
2024-05-09T23:04:38.232Z,23.00
2024-05-09T23:07:39.997Z,23.00
2024-05-09T23:10:41.755Z,23.00
2024-05-09T23:13:43.746Z,23.00
2024-05-09T23:16:45.450Z,22.90
2024-05-09T23:19:47.147Z,22.90
2024-05-09T23:22:49.007Z,22.90
2024-05-09T23:25:50.680Z,22.90
2024-05-09T23:28:52.331Z,22.90
2024-05-09T23:31:53.968Z,22.80
2024-05-09T23:34:55.983Z,22.80
2024-05-09T23:37:57.670Z,22.80
2024-05-09T23:40:59.554Z,22.80
2024-05-09T23:44:01.558Z,22.80
2024-05-09T23:47:03.298Z,22.80
2024-05-09T23:50:08.787Z,22.80
2024-05-09T23:53:14.285Z,22.70
2024-05-09T23:56:16.115Z,22.70
2024-05-09T23:59:18.354Z,22.70
